HISTORICAL SENSOR DATA

Sensor Data Report

DB LIVE
CURRENT TIME--:--:--
DEVICE NETWORK Gateway Status
13 ESP · realtime ~1s · history 60s
Weather WS-MOD-01
ONLINE
Actuator ACT-MOD-01
OFFLINE
Mainboard L3 MB-L3-01
ONLINE
Mainboard L5 MB-L5-01
ONLINE
Remote AC AC-REMOTE-01
ONLINE
PZEM L3-01 PWR-L3-01
OFFLINE
PZEM L3-02 PWR-L3-02
OFFLINE
PZEM L3-03 PWR-L3-03
OFFLINE
PZEM L3-04 PWR-L3-04
OFFLINE
PZEM L5-01 PWR-L5-01
ONLINE
PZEM L5-02 PWR-L5-02
ONLINE
PZEM L5-03 PWR-L5-03
OFFLINE
PZEM L5-04 PWR-L5-04
OFFLINE
REPORT FILTER

Periode & Sensor

DATABASE HISTORY
RESET
QUICK RANGE Hari ini 7 hari 30 hari
PERIODE09 Aug 2026sampai 07 Sep 2026
TOTAL DATA93,714sensor readings
MINIMUM-0.50sesuai filter
AVERAGE71.72sesuai filter
MAXIMUM32,564.20sesuai filter
REPORT RESULT

Data Sensor

09/08/2026 — 07/09/2026 EXPORT CSV
NOTANGGALWAKTUDEVICECHANNELSENSORVALUEUNIT
701 07/09/2026 06:13:00 MB-L3-01Mainboard Lantai 3 L3-SHT-01-T SHT20 1 Temperature 27.80 °C
702 07/09/2026 06:13:00 MB-L5-01Mainboard Lantai 5 L5-AI-06 Analog Input 6 3.05 V
703 07/09/2026 06:13:00 MB-L3-01Mainboard Lantai 3 L3-LUX-05 Illuminance / LUX 5 532.40 lux
704 07/09/2026 06:13:00 MB-L5-01Mainboard Lantai 5 L5-RAD-02 Radiation 2 1.00 W/m²
705 07/09/2026 06:13:00 WS-MOD-01Weather Station Module WS-WIND Kecepatan Angin 7.83 m/s
706 07/09/2026 06:13:00 MB-L5-01Mainboard Lantai 5 L5-LUX-04 Illuminance / LUX 4 100.70 lux
707 07/09/2026 06:13:00 MB-L3-01Mainboard Lantai 3 L3-AI-03 Analog Input 3 3.12 V
708 07/09/2026 06:13:00 PWR-L5-01Power Meter L5 PZEM 01 PZEM-L5-01-CURR PZEM L5-01 Current 0.13 A
709 07/09/2026 06:13:00 MB-L5-01Mainboard Lantai 5 L5-HFT-01 Heat Flow Temperature 1 22.60 °C
710 07/09/2026 06:13:00 MB-L5-01Mainboard Lantai 5 L5-RAD-01 Radiation 1 1.00 W/m²
711 07/09/2026 06:13:00 PWR-L5-02Power Meter L5 PZEM 02 PZEM-L5-02-CURR PZEM L5-02 Current 0.00 A
712 07/09/2026 06:13:00 MB-L5-01Mainboard Lantai 5 L5-LUX-02 Illuminance / LUX 2 527.10 lux
713 07/09/2026 06:13:00 MB-L5-01Mainboard Lantai 5 L5-AI-01 Analog Input 1 3.05 V
714 07/09/2026 06:13:00 AC-REMOTE-01Remote AC AC-SETPOINT AC Set Temperature 23.00 °C
715 07/09/2026 06:13:00 PWR-L5-01Power Meter L5 PZEM 01 PZEM-L5-01-POWER PZEM L5-01 Active Power 10.80 W
716 07/09/2026 06:13:00 MB-L3-01Mainboard Lantai 3 L3-LUX-04 Illuminance / LUX 4 93.00 lux
717 07/09/2026 06:13:00 WS-MOD-01Weather Station Module WS-PRES Tekanan Udara 911.00 hPa
718 07/09/2026 06:13:00 MB-L3-01Mainboard Lantai 3 L3-AI-01 Analog Input 1 3.12 V
719 07/09/2026 06:13:00 MB-L5-01Mainboard Lantai 5 L5-AI-04 Analog Input 4 3.05 V
720 07/09/2026 06:13:00 MB-L3-01Mainboard Lantai 3 L3-SHT-03-RH SHT20 3 Humidity 46.40 %RH
721 07/09/2026 06:13:00 MB-L3-01Mainboard Lantai 3 L3-SHT-02-RH SHT20 2 Humidity 46.70 %RH
722 07/09/2026 06:13:00 MB-L3-01Mainboard Lantai 3 L3-AI-06 Analog Input 6 3.12 V
723 07/09/2026 06:13:00 PWR-L5-02Power Meter L5 PZEM 02 PZEM-L5-02-FREQ PZEM L5-02 Frequency 50.00 Hz
724 07/09/2026 06:13:00 MB-L3-01Mainboard Lantai 3 L3-RAD-01 Radiation 1 1.00 W/m²
725 07/09/2026 06:13:00 MB-L5-01Mainboard Lantai 5 L5-BGT-03 Black Globe Temperature 3 25.60 °C
726 07/09/2026 06:13:00 PWR-L5-01Power Meter L5 PZEM 01 PZEM-L5-01-ENERGY PZEM L5-01 Energy 0.13 kWh
727 07/09/2026 06:13:00 MB-L5-01Mainboard Lantai 5 L5-LUX-01 Illuminance / LUX 1 115.00 lux
728 07/09/2026 06:13:00 MB-L5-01Mainboard Lantai 5 L5-ST-01 Surface Temperature 1 22.60 °C
729 07/09/2026 06:13:00 PWR-L5-02Power Meter L5 PZEM 02 PZEM-L5-02-VOLT PZEM L5-02 Voltage 223.70 V
730 07/09/2026 06:13:00 AC-REMOTE-01Remote AC AC-POWER AC Power State 1.00 state
731 07/09/2026 06:13:00 MB-L5-01Mainboard Lantai 5 L5-HFT-02 Heat Flow Temperature 2 21.80 °C
732 07/09/2026 06:13:00 MB-L3-01Mainboard Lantai 3 L3-AI-04 Analog Input 4 3.12 V
733 07/09/2026 06:13:00 MB-L5-01Mainboard Lantai 5 L5-AI-02 Analog Input 2 3.05 V
734 07/09/2026 06:13:00 WS-MOD-01Weather Station Module WS-RH Kelembapan Udara 80.30 %RH
735 07/09/2026 06:13:00 PWR-L5-01Power Meter L5 PZEM 01 PZEM-L5-01-FREQ PZEM L5-01 Frequency 50.00 Hz
736 07/09/2026 06:13:00 PWR-L5-02Power Meter L5 PZEM 02 PZEM-L5-02-ENERGY PZEM L5-02 Energy 0.04 kWh
737 07/09/2026 06:13:00 MB-L3-01Mainboard Lantai 3 L3-LUX-01 Illuminance / LUX 1 94.40 lux
738 07/09/2026 06:13:00 MB-L5-01Mainboard Lantai 5 L5-BGT-01 Black Globe Temperature 1 26.00 °C
739 07/09/2026 06:13:00 MB-L5-01Mainboard Lantai 5 L5-AI-05 Analog Input 5 3.05 V
740 07/09/2026 06:13:00 MB-L5-01Mainboard Lantai 5 L5-LUX-06 Illuminance / LUX 6 178.10 lux
741 07/09/2026 06:12:00 MB-L5-01Mainboard Lantai 5 L5-SHT-02-RH SHT20 2 Humidity 46.50 %RH
742 07/09/2026 06:12:00 MB-L3-01Mainboard Lantai 3 L3-AI-05 Analog Input 5 3.12 V
743 07/09/2026 06:12:00 MB-L3-01Mainboard Lantai 3 L3-LUX-02 Illuminance / LUX 2 146.00 lux
744 07/09/2026 06:12:00 MB-L5-01Mainboard Lantai 5 L5-AI-03 Analog Input 3 3.05 V
745 07/09/2026 06:12:00 PWR-L5-01Power Meter L5 PZEM 01 PZEM-L5-01-VOLT PZEM L5-01 Voltage 223.80 V
746 07/09/2026 06:12:00 AC-REMOTE-01Remote AC AC-MODE AC Operating Mode 1.00 code
747 07/09/2026 06:12:00 MB-L5-01Mainboard Lantai 5 L5-BGT-02 Black Globe Temperature 2 25.90 °C
748 07/09/2026 06:12:00 PWR-L5-02Power Meter L5 PZEM 02 PZEM-L5-02-PF PZEM L5-02 Power Factor 0.00
749 07/09/2026 06:12:00 MB-L3-01Mainboard Lantai 3 L3-SHT-02-T SHT20 2 Temperature 28.10 °C
750 07/09/2026 06:12:00 MB-L3-01Mainboard Lantai 3 L3-SHT-01-T SHT20 1 Temperature 27.70 °C
751 07/09/2026 06:12:00 MB-L5-01Mainboard Lantai 5 L5-AI-06 Analog Input 6 3.05 V
752 07/09/2026 06:12:00 MB-L3-01Mainboard Lantai 3 L3-LUX-05 Illuminance / LUX 5 503.70 lux
753 07/09/2026 06:12:00 MB-L5-01Mainboard Lantai 5 L5-RAD-02 Radiation 2 1.00 W/m²
754 07/09/2026 06:12:00 WS-MOD-01Weather Station Module WS-WIND Kecepatan Angin 6.58 m/s
755 07/09/2026 06:12:00 MB-L5-01Mainboard Lantai 5 L5-LUX-04 Illuminance / LUX 4 95.20 lux
756 07/09/2026 06:12:00 MB-L3-01Mainboard Lantai 3 L3-AI-03 Analog Input 3 3.12 V
757 07/09/2026 06:12:00 PWR-L5-01Power Meter L5 PZEM 01 PZEM-L5-01-CURR PZEM L5-01 Current 0.12 A
758 07/09/2026 06:12:00 MB-L5-01Mainboard Lantai 5 L5-HFT-01 Heat Flow Temperature 1 22.50 °C
759 07/09/2026 06:12:00 MB-L5-01Mainboard Lantai 5 L5-RAD-01 Radiation 1 1.00 W/m²
760 07/09/2026 06:12:00 PWR-L5-02Power Meter L5 PZEM 02 PZEM-L5-02-CURR PZEM L5-02 Current 0.00 A
761 07/09/2026 06:12:00 MB-L5-01Mainboard Lantai 5 L5-LUX-02 Illuminance / LUX 2 503.10 lux
762 07/09/2026 06:12:00 MB-L5-01Mainboard Lantai 5 L5-AI-01 Analog Input 1 3.05 V
763 07/09/2026 06:12:00 AC-REMOTE-01Remote AC AC-SETPOINT AC Set Temperature 23.00 °C
764 07/09/2026 06:12:00 PWR-L5-01Power Meter L5 PZEM 01 PZEM-L5-01-POWER PZEM L5-01 Active Power 10.70 W
765 07/09/2026 06:12:00 MB-L3-01Mainboard Lantai 3 L3-LUX-04 Illuminance / LUX 4 88.30 lux
766 07/09/2026 06:12:00 WS-MOD-01Weather Station Module WS-PRES Tekanan Udara 911.00 hPa
767 07/09/2026 06:12:00 MB-L3-01Mainboard Lantai 3 L3-AI-01 Analog Input 1 3.12 V
768 07/09/2026 06:12:00 MB-L5-01Mainboard Lantai 5 L5-AI-04 Analog Input 4 3.05 V
769 07/09/2026 06:12:00 MB-L3-01Mainboard Lantai 3 L3-SHT-03-RH SHT20 3 Humidity 46.40 %RH
770 07/09/2026 06:12:00 MB-L3-01Mainboard Lantai 3 L3-SHT-02-RH SHT20 2 Humidity 46.60 %RH
771 07/09/2026 06:12:00 MB-L3-01Mainboard Lantai 3 L3-AI-06 Analog Input 6 3.12 V
772 07/09/2026 06:12:00 PWR-L5-02Power Meter L5 PZEM 02 PZEM-L5-02-FREQ PZEM L5-02 Frequency 50.00 Hz
773 07/09/2026 06:12:00 MB-L3-01Mainboard Lantai 3 L3-RAD-01 Radiation 1 1.00 W/m²
774 07/09/2026 06:12:00 MB-L5-01Mainboard Lantai 5 L5-BGT-03 Black Globe Temperature 3 25.70 °C
775 07/09/2026 06:12:00 PWR-L5-01Power Meter L5 PZEM 01 PZEM-L5-01-ENERGY PZEM L5-01 Energy 0.13 kWh
776 07/09/2026 06:12:00 MB-L5-01Mainboard Lantai 5 L5-LUX-01 Illuminance / LUX 1 109.60 lux
777 07/09/2026 06:12:00 MB-L5-01Mainboard Lantai 5 L5-ST-01 Surface Temperature 1 22.60 °C
778 07/09/2026 06:12:00 PWR-L5-02Power Meter L5 PZEM 02 PZEM-L5-02-VOLT PZEM L5-02 Voltage 223.70 V
779 07/09/2026 06:12:00 AC-REMOTE-01Remote AC AC-POWER AC Power State 1.00 state
780 07/09/2026 06:12:00 MB-L5-01Mainboard Lantai 5 L5-HFT-02 Heat Flow Temperature 2 21.80 °C
781 07/09/2026 06:12:00 MB-L3-01Mainboard Lantai 3 L3-AI-04 Analog Input 4 3.12 V
782 07/09/2026 06:12:00 MB-L5-01Mainboard Lantai 5 L5-AI-02 Analog Input 2 3.05 V
783 07/09/2026 06:12:00 WS-MOD-01Weather Station Module WS-RH Kelembapan Udara 80.30 %RH
784 07/09/2026 06:12:00 PWR-L5-01Power Meter L5 PZEM 01 PZEM-L5-01-FREQ PZEM L5-01 Frequency 50.00 Hz
785 07/09/2026 06:12:00 PWR-L5-02Power Meter L5 PZEM 02 PZEM-L5-02-ENERGY PZEM L5-02 Energy 0.04 kWh
786 07/09/2026 06:12:00 MB-L3-01Mainboard Lantai 3 L3-LUX-01 Illuminance / LUX 1 89.90 lux
787 07/09/2026 06:12:00 MB-L5-01Mainboard Lantai 5 L5-BGT-01 Black Globe Temperature 1 25.90 °C
788 07/09/2026 06:12:00 MB-L5-01Mainboard Lantai 5 L5-AI-05 Analog Input 5 3.05 V
789 07/09/2026 06:12:00 MB-L5-01Mainboard Lantai 5 L5-LUX-06 Illuminance / LUX 6 170.60 lux
790 07/09/2026 06:12:00 MB-L3-01Mainboard Lantai 3 L3-AI-02 Analog Input 2 3.12 V
791 07/09/2026 06:12:00 PWR-L5-01Power Meter L5 PZEM 01 PZEM-L5-01-PF PZEM L5-01 Power Factor 0.39
792 07/09/2026 06:12:00 MB-L5-01Mainboard Lantai 5 L5-SHT-01-RH SHT20 1 Humidity 47.40 %RH
793 07/09/2026 06:12:00 MB-L5-01Mainboard Lantai 5 L5-ST-02 Surface Temperature 2 22.10 °C
794 07/09/2026 06:12:00 MB-L3-01Mainboard Lantai 3 L3-SHT-01-RH SHT20 1 Humidity 47.30 %RH
795 07/09/2026 06:12:00 MB-L3-01Mainboard Lantai 3 L3-LUX-03 Illuminance / LUX 3 162.10 lux
796 07/09/2026 06:12:00 MB-L3-01Mainboard Lantai 3 L3-LUX-06 Illuminance / LUX 6 288.10 lux
797 07/09/2026 06:12:00 AC-REMOTE-01Remote AC AC-FAN AC Fan Speed 0.00 code
798 07/09/2026 06:12:00 MB-L3-01Mainboard Lantai 3 L3-SHT-03-T SHT20 3 Temperature 28.20 °C
799 07/09/2026 06:12:00 MB-L5-01Mainboard Lantai 5 L5-SHT-02-T SHT20 2 Temperature 28.10 °C
800 07/09/2026 06:12:00 WS-MOD-01Weather Station Module WS-TEMP Suhu Udara 18.40 °C
Menampilkan maksimal 100 data per halaman